Aircraft
UPR1005 PR-QAA Citation
OERB
Rabigh Airport
OMDB
Dubai International Airport
Pilot:: Eber
Aircraft:: Cessna Citation CJ4
Alternate: OMAA
Network: ivao
FLIGHT DETAILS
Distance: 907nm Duration 02h 26m
Cruise Speed: Flight Level: 41000
Validation: Validated Type Charter
Flight Fuel
ZFW: 4495
Block Fuel/Initial FOB: 2663
Flight Fuel: 1491
Cargo
Passengers: 6
Cargo: 0
ROUTE
ROUTE: EGREP B417 PATOR T532 DAW J852 KSA H744 KINIB N687 MIBRA J749 ROTEL N572 TORBO M677 MURUB M708 DASUT N717 UKVUP B547 SIR DATOB DATO1E
REMARKS:
DATE
Date: 26-05-04
Departure Time: 2213
Cargo: 0
FLIGHT DETAILS
Crashed: No
Validator Comments: Validado por Claudenir
Flight Rating: 100
LANDING ANALYSIS
Landing wind: 201º/5 kt
Landing heading: 294º
Landing VS:: -159 ft/min
Landing IAS:: 103 kt
Landing Force G: 1.2 G
Landing Bank: -1
Landing Pitch: -2
Landing Flaps: 100
Navigation Lights: ON
Landing Lights: ON
Beacon Lights: ON
Strobe Lights: ON
viserfly

ALTITUDE CHART

viserfly

MAIN EVENTS

DATE EVENT IAS ALTITUDE
2026-05-03 22:08:11 FLYacars version 1.3.5 0 21
2026-05-03 22:08:27 Starting Engine 2 0 21
2026-05-03 22:08:41 Starting Engine 1 0 21
2026-05-03 22:09:51 FLAPS 50% 0 21
2026-05-03 22:10:09 Taxi Lights ON 0 21
2026-05-03 22:10:10 Aircraft boarding in progress 0 21
2026-05-03 22:10:10 Navigation Lights ON 0 21
2026-05-03 22:10:11 Strobe Lights ON 0 21
2026-05-03 22:11:33 Aircraft taxiing to runway 5 21
2026-05-03 22:13:28 Landing Lights ON 0 21
2026-05-03 22:13:57 Detected Take-off roll, HDG 143, IAS 134kt, GS 141kt, G-force 1.0g, Pitch -1.9deg, Bank 0.2deg, Wind 285/01kt, Temp 29°C 134 19
2026-05-03 22:13:57 Airborne 134 19
2026-05-03 22:14:00 Gear UP, IAS 153kt, GS 159kt, ALT 19ft AGL 153 36
2026-05-03 22:14:15 FLAPS 0% 193kt, ALT 517ft 193 517
2026-05-03 22:16:46 Landing Lights OFF 206 10496
2026-05-03 22:16:46 Taxi Lights OFF 206 10496
2026-05-03 22:32:58 Aircraft on Top Of Climb at 42376ft, IAS 175kt, GS 394kt, HDG 19deg, TAT -57deg, WIND 247/53kt 175 42376
2026-05-04 00:07:45 Aircraft on Top Of Descent at 40498ft, IAS 226kt, GS 479kt, HDG 86deg, TAT -52deg, WIND 269/51kt 226 40498
2026-05-04 00:21:25 Landing Lights ON 230 9837
2026-05-04 00:21:27 Taxi Lights ON 230 9782
2026-05-04 00:32:01 FLAPS 50% 181kt, ALT 3159ft 181 3159
2026-05-04 00:33:21 Gear DOWN, IAS 200kt, GS 216kt, ALT 1745ft AGL 200 2181
2026-05-04 00:33:22 FLAPS 100% 200kt, ALT 2175ft 200 2175
2026-05-04 00:40:21 Landed at destination with a landing rate of -159fpm, G-force 1.2g, Pitch -2.4deg, Bank -0.7deg, HDG 294deg, IAS 103kt, GS 107kt, Wind 201/05kt, Temp 29°C 103 16
2026-05-04 00:40:52 Aircraft taxiing to apron 25 15
2026-05-04 00:41:25 FLAPS 50% 4 15
2026-05-04 00:44:31 Strobe Lights OFF 4 15
2026-05-04 00:44:32 Navigation Lights OFF 4 15
2026-05-04 00:44:34 Landing Lights OFF 4 15
2026-05-04 00:44:34 Taxi Lights OFF 4 15
2026-05-04 00:45:28 Aircraft at gate/stand, ground services are moving into position, disembarkation has begun. Remaining FOB 1172kg FLYacars v1.3.5 4 15
viserfly

ACARS DATA

DATE IAS GS ALTITUDE FUEL CONSUMED OAT FLIGHT STATUS
2026-05-03 22:08:41 0 0 21 1 29 BOARDING
2026-05-03 22:09:11 0 0 21 1 29 BOARDING
2026-05-03 22:09:41 0 0 21 2 29 BOARDING
2026-05-03 22:10:11 0 0 21 3 29 BOARDING
2026-05-03 22:10:41 0 0 21 5 29 PUSHBACK
2026-05-03 22:11:11 0 0 21 6 29 PUSHBACK
2026-05-03 22:11:41 8 8 21 8 29 TAXI TO RUNWAY
2026-05-03 22:12:11 0 0 20 9 29 TAXI TO RUNWAY
2026-05-03 22:12:41 3 5 21 12 29 TAXI TO RUNWAY
2026-05-03 22:13:11 0 0 21 13 29 TAXI TO RUNWAY
2026-05-03 22:13:41 37 40 21 16 29 TAXI TO RUNWAY
2026-05-03 22:14:11 183 188 345 30 29 TAKEOFF
2026-05-03 22:14:41 206 210 2515 41 32 CLIMB
2026-05-03 22:15:11 204 223 4509 52 27 CLIMB
2026-05-03 22:15:41 204 237 6418 62 22 CLIMB
2026-05-03 22:16:11 205 245 8319 72 17 CLIMB
2026-05-03 22:16:41 205 252 10172 83 12 CLIMB
2026-05-03 22:17:11 206 256 12028 93 8 CLIMB
2026-05-03 22:17:41 206 259 13790 104 3 CLIMB
2026-05-03 22:18:11 206 264 15400 114 0 CLIMB
2026-05-03 22:18:41 206 272 16911 124 -3 CLIMB
2026-05-03 22:19:11 205 279 18376 134 -7 CLIMB
2026-05-03 22:19:41 205 286 19770 143 -10 CLIMB
2026-05-03 22:20:11 206 296 21064 153 -12 CLIMB
2026-05-03 22:20:41 239 342 21295 163 -13 CLIMB
2026-05-03 22:21:11 238 348 22496 172 -15 CLIMB
2026-05-03 22:21:41 238 356 23570 182 -16 CLIMB
2026-05-03 22:22:11 238 364 24597 191 -18 CLIMB
2026-05-03 22:22:41 237 370 25622 201 -20 CLIMB
2026-05-03 22:23:11 238 379 26543 210 -22 CLIMB
2026-05-03 22:23:41 238 386 27419 219 -24 CLIMB
2026-05-03 22:24:11 238 394 28272 228 -25 CLIMB
2026-05-03 22:24:41 238 400 29093 237 -27 CLIMB
2026-05-03 22:25:11 237 405 29935 245 -29 CLIMB
2026-05-03 22:25:41 221 392 31316 254 -31 CLIMB
2026-05-03 22:26:11 218 399 32237 262 -33 CLIMB
2026-05-03 22:26:41 213 405 33154 269 -35 CLIMB
2026-05-03 22:27:11 210 405 34019 277 -37 CLIMB
2026-05-03 22:27:41 205 400 34891 284 -39 CLIMB
2026-05-03 22:28:11 201 391 35725 291 -41 CLIMB
2026-05-03 22:28:41 198 383 36557 299 -43 CLIMB
2026-05-03 22:29:11 194 381 37376 305 -45 CLIMB
2026-05-03 22:29:41 191 381 38151 312 -47 CLIMB
2026-05-03 22:30:11 188 380 38871 318 -49 CLIMB
2026-05-03 22:30:41 184 379 39577 325 -50 CLIMB
2026-05-03 22:31:11 181 378 40252 331 -52 CLIMB
2026-05-03 22:31:41 179 378 40902 336 -53 CLIMB
2026-05-03 22:32:11 176 378 41536 342 -55 CLIMB
2026-05-03 22:32:41 173 383 42185 348 -56 CLIMB
2026-05-03 22:33:11 179 404 42416 353 -57 ENROUTE
2026-05-03 22:33:41 188 425 42445 359 -57 ENROUTE
2026-05-03 22:34:11 195 440 42438 364 -57 ENROUTE
2026-05-03 22:34:41 203 453 42439 370 -57 ENROUTE
2026-05-03 22:35:11 209 465 42438 375 -57 ENROUTE
2026-05-03 22:35:41 214 474 42439 381 -57 ENROUTE
2026-05-03 22:36:11 219 482 42436 386 -57 ENROUTE
2026-05-03 22:36:41 219 483 42423 391 -57 ENROUTE
2026-05-03 22:37:11 217 480 42425 395 -57 ENROUTE
2026-05-03 22:37:41 218 481 42423 400 -57 ENROUTE
2026-05-03 22:38:11 218 483 42423 405 -57 ENROUTE
2026-05-03 22:38:41 218 484 42418 410 -57 ENROUTE
2026-05-03 22:39:11 219 484 42421 414 -57 ENROUTE
2026-05-03 22:39:41 219 485 42421 419 -57 ENROUTE
2026-05-03 22:40:11 220 485 42424 424 -57 ENROUTE
2026-05-03 22:40:41 220 485 42426 429 -57 ENROUTE
2026-05-03 22:41:11 220 486 42410 433 -57 ENROUTE
2026-05-03 22:41:41 220 487 42411 438 -57 ENROUTE
2026-05-03 22:42:11 220 487 42413 443 -57 ENROUTE
2026-05-03 22:42:41 220 487 42414 447 -57 ENROUTE
2026-05-03 22:43:11 219 488 42395 452 -57 ENROUTE
2026-05-03 22:43:41 220 488 42397 457 -57 ENROUTE
2026-05-03 22:44:11 220 488 42401 462 -57 ENROUTE
2026-05-03 22:44:41 220 488 42403 466 -57 ENROUTE
2026-05-03 22:45:11 222 488 42417 471 -57 ENROUTE
2026-05-03 22:45:41 222 487 42421 476 -57 ENROUTE
2026-05-03 22:46:11 222 487 42422 480 -57 ENROUTE
2026-05-03 22:46:41 223 486 42425 485 -57 ENROUTE
2026-05-03 22:47:11 222 485 42427 490 -57 ENROUTE
2026-05-03 22:47:41 222 485 42427 495 -57 ENROUTE
2026-05-03 22:48:11 220 485 42423 499 -57 ENROUTE
2026-05-03 22:48:41 221 485 42419 504 -57 ENROUTE
2026-05-03 22:49:11 221 485 42418 509 -57 ENROUTE
2026-05-03 22:49:41 221 485 42421 514 -57 ENROUTE
2026-05-03 22:50:11 221 485 42423 518 -57 ENROUTE
2026-05-03 22:50:41 221 485 42423 523 -57 ENROUTE
2026-05-03 22:51:11 221 485 42421 528 -57 ENROUTE
2026-05-03 22:51:41 221 485 42421 532 -57 ENROUTE
2026-05-03 22:52:11 221 485 42421 537 -57 ENROUTE
2026-05-03 22:52:41 220 486 42421 542 -57 ENROUTE
2026-05-03 22:53:11 219 487 42399 547 -57 ENROUTE
2026-05-03 22:53:41 220 487 42396 551 -57 ENROUTE
2026-05-03 22:54:11 221 487 42404 556 -57 ENROUTE
2026-05-03 22:54:41 221 487 42407 561 -57 ENROUTE
2026-05-03 22:55:11 221 487 42407 565 -57 ENROUTE
2026-05-03 22:55:41 220 487 42414 570 -57 ENROUTE
2026-05-03 22:56:11 221 487 42413 575 -57 ENROUTE
2026-05-03 22:56:41 220 487 42414 580 -57 ENROUTE
2026-05-03 22:57:11 221 487 42415 584 -57 ENROUTE
2026-05-03 22:57:41 221 487 42415 589 -57 ENROUTE
2026-05-03 22:58:11 220 488 42401 594 -57 ENROUTE
2026-05-03 22:58:41 221 488 42402 598 -57 ENROUTE
2026-05-03 22:59:11 221 488 42403 603 -57 ENROUTE
2026-05-03 22:59:41 221 488 42404 608 -57 ENROUTE
2026-05-03 23:00:11 221 488 42404 613 -57 ENROUTE
2026-05-03 23:00:41 220 487 42402 617 -57 ENROUTE
2026-05-03 23:01:11 221 487 42404 622 -57 ENROUTE
2026-05-03 23:01:41 221 487 42405 627 -57 ENROUTE
2026-05-03 23:02:11 221 487 42406 632 -57 ENROUTE
2026-05-03 23:02:41 221 487 42409 636 -57 ENROUTE
2026-05-03 23:03:11 220 487 42406 641 -57 ENROUTE
2026-05-03 23:03:41 221 487 42401 646 -57 ENROUTE
2026-05-03 23:04:11 221 487 42402 650 -57 ENROUTE
2026-05-03 23:04:41 221 487 42403 655 -57 ENROUTE
2026-05-03 23:05:11 221 487 42403 660 -57 ENROUTE
2026-05-03 23:05:41 221 487 42403 665 -57 ENROUTE
2026-05-03 23:06:11 220 487 42402 669 -57 ENROUTE
2026-05-03 23:06:41 221 487 42403 674 -57 ENROUTE
2026-05-03 23:07:11 222 487 42403 679 -57 ENROUTE
2026-05-03 23:07:41 221 486 42413 683 -57 ENROUTE
2026-05-03 23:08:11 221 486 42415 688 -57 ENROUTE
2026-05-03 23:08:41 221 486 42416 693 -57 ENROUTE
2026-05-03 23:09:11 221 486 42415 698 -57 ENROUTE
2026-05-03 23:09:41 221 486 42415 702 -57 ENROUTE
2026-05-03 23:10:11 221 486 42415 707 -57 ENROUTE
2026-05-03 23:10:41 221 486 42415 712 -57 ENROUTE
2026-05-03 23:11:11 221 487 42414 717 -57 ENROUTE
2026-05-03 23:11:41 221 487 42415 721 -57 ENROUTE
2026-05-03 23:12:11 221 487 42415 726 -57 ENROUTE
2026-05-03 23:12:41 221 487 42415 731 -57 ENROUTE
2026-05-03 23:13:11 221 488 42415 735 -57 ENROUTE
2026-05-03 23:13:41 221 488 42415 740 -57 ENROUTE
2026-05-03 23:14:11 221 488 42412 745 -57 ENROUTE
2026-05-03 23:14:41 221 488 42412 750 -57 ENROUTE
2026-05-03 23:15:11 221 488 42413 754 -57 ENROUTE
2026-05-03 23:15:41 221 488 42413 759 -57 ENROUTE
2026-05-03 23:16:11 221 489 42409 764 -57 ENROUTE
2026-05-03 23:16:41 221 489 42409 768 -57 ENROUTE
2026-05-03 23:17:11 221 489 42409 773 -57 ENROUTE
2026-05-03 23:17:41 221 489 42406 778 -57 ENROUTE
2026-05-03 23:18:11 221 488 42405 783 -57 ENROUTE
2026-05-03 23:18:41 221 488 42406 787 -57 ENROUTE
2026-05-03 23:19:11 221 489 42407 792 -57 ENROUTE
2026-05-03 23:19:41 221 489 42405 797 -57 ENROUTE
2026-05-03 23:20:11 221 489 42402 801 -56 ENROUTE
2026-05-03 23:20:41 221 489 42403 806 -56 ENROUTE
2026-05-03 23:21:11 221 489 42403 811 -56 ENROUTE
2026-05-03 23:21:41 221 489 42401 816 -56 ENROUTE
2026-05-03 23:22:11 221 489 42400 820 -56 ENROUTE
2026-05-03 23:22:41 221 489 42400 825 -56 ENROUTE
2026-05-03 23:23:11 221 489 42400 830 -56 ENROUTE
2026-05-03 23:23:41 221 489 42402 835 -56 ENROUTE
2026-05-03 23:24:11 221 489 42403 839 -56 ENROUTE
2026-05-03 23:24:41 221 489 42402 844 -56 ENROUTE
2026-05-03 23:25:11 221 489 42397 849 -56 ENROUTE
2026-05-03 23:25:41 221 489 42397 853 -56 ENROUTE
2026-05-03 23:26:11 221 489 42398 858 -56 ENROUTE
2026-05-03 23:26:41 221 489 42398 863 -56 ENROUTE
2026-05-03 23:27:11 221 489 42399 868 -56 ENROUTE
2026-05-03 23:27:41 221 489 42399 872 -56 ENROUTE
2026-05-03 23:28:11 221 489 42399 877 -56 ENROUTE
2026-05-03 23:28:41 221 489 42399 882 -56 ENROUTE
2026-05-03 23:29:11 221 489 42399 886 -56 ENROUTE
2026-05-03 23:29:41 221 489 42399 891 -56 ENROUTE
2026-05-03 23:30:11 221 489 42399 896 -56 ENROUTE
2026-05-03 23:30:41 221 486 42397 901 -56 ENROUTE
2026-05-03 23:31:11 221 486 42400 905 -56 ENROUTE
2026-05-03 23:31:41 221 486 42402 910 -56 ENROUTE
2026-05-03 23:32:11 221 486 42403 915 -56 ENROUTE
2026-05-03 23:32:41 221 486 42398 919 -56 ENROUTE
2026-05-03 23:33:11 221 486 42398 924 -56 ENROUTE
2026-05-03 23:33:41 221 486 42398 929 -56 ENROUTE
2026-05-03 23:34:11 221 486 42399 934 -56 ENROUTE
2026-05-03 23:34:41 221 486 42387 938 -56 ENROUTE
2026-05-03 23:35:11 221 486 42386 943 -56 ENROUTE
2026-05-03 23:35:41 221 487 42386 948 -56 ENROUTE
2026-05-03 23:36:11 221 487 42381 953 -56 ENROUTE
2026-05-03 23:36:41 221 487 42383 957 -56 ENROUTE
2026-05-03 23:37:11 221 487 42384 962 -56 ENROUTE
2026-05-03 23:37:41 221 487 42384 967 -56 ENROUTE
2026-05-03 23:38:11 222 487 42387 971 -56 ENROUTE
2026-05-03 23:38:41 222 487 42387 976 -56 ENROUTE
2026-05-03 23:39:11 221 486 42387 981 -56 ENROUTE
2026-05-03 23:39:41 222 486 42382 986 -56 ENROUTE
2026-05-03 23:40:11 221 486 42383 990 -56 ENROUTE
2026-05-03 23:40:41 221 486 42382 995 -56 ENROUTE
2026-05-03 23:41:11 221 486 42382 1000 -56 ENROUTE
2026-05-03 23:41:41 221 490 42379 1004 -56 ENROUTE
2026-05-03 23:42:11 221 491 42380 1009 -56 ENROUTE
2026-05-03 23:42:41 221 491 42381 1014 -56 ENROUTE
2026-05-03 23:43:11 221 490 42383 1019 -56 ENROUTE
2026-05-03 23:43:41 221 490 42382 1023 -56 ENROUTE
2026-05-03 23:44:11 221 490 42382 1028 -56 ENROUTE
2026-05-03 23:44:41 221 490 42375 1033 -56 ENROUTE
2026-05-03 23:45:11 221 490 42375 1038 -56 ENROUTE
2026-05-03 23:45:41 221 490 42375 1042 -56 ENROUTE
2026-05-03 23:46:11 221 490 42376 1047 -56 ENROUTE
2026-05-03 23:46:41 221 490 42376 1052 -56 ENROUTE
2026-05-03 23:47:11 221 490 42377 1056 -56 ENROUTE
2026-05-03 23:47:41 221 490 42377 1061 -56 ENROUTE
2026-05-03 23:48:11 221 490 42377 1066 -56 ENROUTE
2026-05-03 23:48:41 221 490 42377 1071 -56 ENROUTE
2026-05-03 23:49:11 221 490 42373 1075 -56 ENROUTE
2026-05-03 23:49:41 221 490 42372 1080 -56 ENROUTE
2026-05-03 23:50:11 221 490 42373 1085 -56 ENROUTE
2026-05-03 23:50:41 221 491 42370 1089 -56 ENROUTE
2026-05-03 23:51:11 221 489 42367 1094 -56 ENROUTE
2026-05-03 23:51:41 221 484 42368 1099 -56 ENROUTE
2026-05-03 23:52:11 221 485 42371 1104 -56 ENROUTE
2026-05-03 23:52:41 222 485 42374 1108 -56 ENROUTE
2026-05-03 23:53:11 221 484 42377 1113 -56 ENROUTE
2026-05-03 23:53:41 221 484 42378 1118 -56 ENROUTE
2026-05-03 23:54:11 221 484 42379 1123 -56 ENROUTE
2026-05-03 23:54:41 221 484 42379 1127 -56 ENROUTE
2026-05-03 23:55:11 221 484 42379 1132 -56 ENROUTE
2026-05-03 23:55:41 222 484 42381 1137 -56 ENROUTE
2026-05-03 23:56:11 222 483 42382 1141 -56 ENROUTE
2026-05-03 23:56:41 222 482 42382 1146 -56 ENROUTE
2026-05-03 23:57:11 221 482 42382 1151 -56 ENROUTE
2026-05-03 23:57:41 221 482 42380 1156 -56 ENROUTE
2026-05-03 23:58:11 222 482 42392 1160 -56 ENROUTE
2026-05-03 23:58:41 222 482 42393 1165 -56 ENROUTE
2026-05-03 23:59:11 221 482 42392 1170 -56 ENROUTE
2026-05-03 23:59:41 221 481 42392 1174 -56 ENROUTE
2026-05-04 00:00:11 221 481 42391 1179 -56 ENROUTE
2026-05-04 00:00:41 222 481 42391 1184 -56 ENROUTE
2026-05-04 00:01:11 222 481 42400 1189 -56 ENROUTE
2026-05-04 00:01:41 220 482 42458 1193 -56 CLIMB
2026-05-04 00:02:11 220 481 42511 1198 -56 ENROUTE
2026-05-04 00:02:41 220 481 42509 1203 -56 ENROUTE
2026-05-04 00:03:11 220 481 42511 1207 -56 ENROUTE
2026-05-04 00:03:41 220 482 42512 1212 -56 ENROUTE
2026-05-04 00:04:11 222 484 42418 1217 -56 ENROUTE
2026-05-04 00:04:41 222 483 42419 1222 -56 ENROUTE
2026-05-04 00:05:11 222 484 42417 1226 -56 ENROUTE
2026-05-04 00:05:41 222 484 42418 1231 -56 ENROUTE
2026-05-04 00:06:11 222 484 42417 1236 -56 ENROUTE
2026-05-04 00:06:41 222 483 42418 1240 -56 ENROUTE
2026-05-04 00:07:11 218 476 42303 1244 -56 DESCENT
2026-05-04 00:07:41 226 479 40755 1246 -52 DESCENT
2026-05-04 00:08:11 230 477 38965 1249 -49 DESCENT
2026-05-04 00:08:41 237 481 37796 1252 -46 DESCENT
2026-05-04 00:09:11 252 497 36447 1256 -43 DESCENT
2026-05-04 00:09:41 252 489 35018 1258 -39 DESCENT
2026-05-04 00:10:11 252 479 33732 1260 -37 DESCENT
2026-05-04 00:10:41 255 474 32432 1262 -34 DESCENT
2026-05-04 00:11:11 268 483 30955 1266 -31 DESCENT
2026-05-04 00:11:41 285 495 29726 1271 -28 DESCENT
2026-05-04 00:12:11 296 498 28584 1277 -26 DESCENT
2026-05-04 00:12:41 297 479 27299 1281 -24 DESCENT
2026-05-04 00:13:11 294 460 26030 1285 -21 DESCENT
2026-05-04 00:13:41 294 453 24756 1289 -19 DESCENT
2026-05-04 00:14:11 293 448 23528 1293 -16 DESCENT
2026-05-04 00:14:41 293 441 22373 1297 -14 DESCENT
2026-05-04 00:15:11 293 434 21196 1301 -11 DESCENT
2026-05-04 00:15:41 272 401 20011 1303 -8 DESCENT
2026-05-04 00:16:11 259 376 18873 1305 -6 DESCENT
2026-05-04 00:16:41 250 359 17888 1306 -3 DESCENT
2026-05-04 00:17:11 244 346 16945 1308 -1 DESCENT
2026-05-04 00:17:41 240 336 16013 1310 0 DESCENT
2026-05-04 00:18:11 235 325 15201 1311 3 DESCENT
2026-05-04 00:18:41 233 318 14395 1313 5 DESCENT
2026-05-04 00:19:11 234 314 13540 1314 6 DESCENT
2026-05-04 00:19:41 232 309 12709 1316 8 DESCENT
2026-05-04 00:20:11 230 302 11904 1317 8 DESCENT
2026-05-04 00:20:41 229 296 11078 1319 10 DESCENT
2026-05-04 00:21:11 228 292 10233 1320 11 DESCENT
2026-05-04 00:21:41 229 289 9454 1322 13 DESCENT
2026-05-04 00:22:11 209 262 9379 1323 13 ENROUTE
2026-05-04 00:22:41 194 244 9380 1325 13 ENROUTE
2026-05-04 00:23:11 185 234 9378 1327 13 ENROUTE
2026-05-04 00:23:41 202 252 9385 1331 13 ENROUTE
2026-05-04 00:24:11 212 270 9404 1335 13 ENROUTE
2026-05-04 00:24:41 221 282 9411 1339 13 ENROUTE
2026-05-04 00:25:11 236 299 9158 1343 14 DESCENT
2026-05-04 00:25:41 245 305 8396 1346 16 DESCENT
2026-05-04 00:26:11 229 284 7508 1347 18 DESCENT
2026-05-04 00:26:41 216 269 7406 1349 19 ENROUTE
2026-05-04 00:27:11 229 278 6563 1351 21 DESCENT
2026-05-04 00:27:41 237 283 5536 1352 24 DESCENT
2026-05-04 00:28:11 240 281 4511 1353 26 DESCENT
2026-05-04 00:28:41 221 261 4225 1355 27 ENROUTE
2026-05-04 00:29:11 211 248 4215 1357 27 ENROUTE
2026-05-04 00:29:41 205 242 4216 1359 27 ENROUTE
2026-05-04 00:30:11 210 247 3970 1362 27 DESCENT
2026-05-04 00:30:41 220 256 3431 1363 28 DESCENT
2026-05-04 00:31:11 218 253 3214 1366 28 ENROUTE
2026-05-04 00:31:41 196 229 3165 1367 29 ENROUTE
2026-05-04 00:32:11 178 204 3182 1369 29 ENROUTE
2026-05-04 00:32:41 196 222 2712 1373 29 APPROACH
2026-05-04 00:33:11 203 224 2234 1376 30 APPROACH
2026-05-04 00:33:41 146 147 2104 1380 29 APPROACH
2026-05-04 00:34:11 143 138 2078 1387 29 APPROACH
2026-05-04 00:34:41 160 157 2101 1397 29 APPROACH
2026-05-04 00:35:11 163 161 2098 1407 29 APPROACH
2026-05-04 00:35:41 166 164 2102 1417 29 APPROACH
2026-05-04 00:36:11 167 164 2100 1427 29 APPROACH
2026-05-04 00:36:41 168 163 2101 1438 30 APPROACH
2026-05-04 00:37:11 167 162 2097 1448 30 APPROACH
2026-05-04 00:37:41 154 147 2092 1458 30 APPROACH
2026-05-04 00:38:11 139 132 1599 1462 30 APPROACH
2026-05-04 00:38:41 137 134 1040 1466 29 ON FINAL
2026-05-04 00:39:11 127 130 701 1471 28 ON FINAL
2026-05-04 00:39:41 126 131 446 1475 28 ON FINAL
2026-05-04 00:40:11 122 127 33 1479 29 ON FINAL
2026-05-04 00:40:41 27 29 15 1480 29 TAXI TO APRON
2026-05-04 00:41:11 4 0 15 1481 29 TAXI TO APRON
2026-05-04 00:41:41 4 0 15 1482 29 TAXI TO APRON
2026-05-04 00:42:11 4 0 15 1484 29 TAXI TO APRON
2026-05-04 00:42:41 4 0 15 1486 29 TAXI TO APRON
2026-05-04 00:43:11 18 20 15 1489 29 TAXI TO APRON
2026-05-04 00:43:41 19 19 15 1490 29 TAXI TO APRON
2026-05-04 00:44:11 4 0 15 1491 29 TAXI TO APRON
2026-05-04 00:44:41 4 0 15 1491 29 TAXI TO APRON
2026-05-04 00:45:11 4 0 15 1491 29 TAXI TO APRON
  • Join our VA!

    It has been 11 years of great learning, friendships, and stories.

  • Sign up now!